Challenge Plus — 9VJH7 — position and weather

sailwx.info

Track history (hours):
 
Tides and Currents Weather Stations Pressure Air Temp Water Temp Dewpoint Dewpoint Depression Visibility Wind Speed Wind Dir Waves Ship Positions

Challenge Plus

Last reported at 2014-Oct-15 11:18 UTC. Time now 2014-Oct-31 07:51 UTC.
Position S 06°52' E 114°42'.
Warning: this ship's position is 15 days out of date.

Length 179 m; draft 11.8 m.

Type: Tanker. MMSI: 565267000.

Date/timePositionNaut miles runAvg speedWind from/ knotsBaromVisibWave heightAir tempDewpointWater temp
2014-Oct-15 11:18S 06°52' E 114°42'1012.8
2014-Oct-15 10:33S 06°45' E 114°35'1312.9
2014-Oct-15 09:33S 06°36' E 114°26'2913.2
2014-Oct-15 07:21S 06°15' E 114°07'  
2014-Oct-12 15:22N 01°16' E 104°12'1012.2
2014-Oct-12 14:33N 01°15' E 104°02'1212.1
2014-Oct-12 13:33N 01°11' E 103°51'1212.3
2014-Oct-12 12:33N 01°04' E 103°40'9 4.5
2014-Oct-12 10:30N 01°13' E 103°40'3 3.1
2014-Oct-12 09:31N 01°16' E 103°41'0 0.0
2014-Oct-12 08:31N 01°16' E 103°41'0 0.0
2014-Oct-11 19:33N 01°16' E 103°41'4 3.8
2014-Oct-11 18:33N 01°12' E 103°40'0 0.1
2014-Oct-11 17:20N 01°12' E 103°40'1 1.0
2014-Oct-11 16:33N 01°12' E 103°40'  
2014-Oct-08 01:18N 01°14' E 103°25'911.7
2014-Oct-08 00:34N 01°12' E 103°34'1212.2
2014-Oct-07 23:34N 01°09' E 103°45'1010.4
2014-Oct-07 22:33N 01°14' E 103°54'1 1.0
2014-Oct-07 21:31N 01°15' E 103°54'0 0.0
2014-Oct-07 20:31N 01°15' E 103°54'0 0.0
2014-Oct-07 19:31N 01°15' E 103°54'0 0.1
2014-Oct-07 18:31N 01°15' E 103°54'0 0.1
2014-Oct-07 17:31N 01°15' E 103°54'0 0.0
2014-Oct-07 16:31N 01°15' E 103°54'0 0.1
2014-Oct-07 15:28N 01°15' E 103°54'0 0.1
2014-Oct-07 14:31N 01°15' E 103°54'0 0.0
2014-Oct-07 13:31N 01°15' E 103°54'0 0.0
2014-Oct-07 12:31N 01°15' E 103°54'0 0.0
2014-Oct-07 11:28N 01°15' E 103°54'0 0.1
2014-Oct-07 10:31N 01°15' E 103°54'0 0.1
2014-Oct-07 09:31N 01°15' E 103°54'0 0.0
2014-Oct-07 08:31N 01°15' E 103°54'0 0.1
2014-Oct-07 07:31N 01°15' E 103°54'0 0.1
2014-Oct-07 06:31N 01°15' E 103°54'0 0.1
2014-Oct-07 05:31N 01°15' E 103°54'0 0.0
2014-Oct-07 04:31N 01°15' E 103°54'0 0.0
2014-Oct-07 03:31N 01°15' E 103°54'0 0.1
2014-Oct-07 02:31N 01°15' E 103°54'0 0.0
2014-Oct-07 01:31N 01°15' E 103°54'0 0.1
2014-Oct-07 00:31N 01°15' E 103°54'0 0.0
2014-Oct-06 23:31N 01°15' E 103°54'0 0.0
2014-Oct-06 22:31N 01°15' E 103°54'0 0.1
2014-Oct-06 21:31N 01°15' E 103°54'0 0.1
2014-Oct-06 20:31N 01°15' E 103°54'0 0.0
2014-Oct-06 19:31N 01°15' E 103°54'0 0.0
2014-Oct-06 18:31N 01°15' E 103°54'0 0.1
2014-Oct-06 17:31N 01°15' E 103°54'0 0.1
2014-Oct-06 16:31N 01°15' E 103°54'0 0.0
2014-Oct-06 15:31N 01°15' E 103°54'0 0.1
2014-Oct-06 14:31N 01°15' E 103°54'0 0.1
2014-Oct-06 13:31N 01°15' E 103°54'0 0.0
2014-Oct-06 12:31N 01°15' E 103°54'0 0.0
2014-Oct-06 11:31N 01°15' E 103°54'0 0.0
2014-Oct-06 10:31N 01°15' E 103°54'0 0.1
2014-Oct-06 09:31N 01°15' E 103°54'0 0.1
2014-Oct-06 08:31N 01°15' E 103°54'0 0.1
2014-Oct-06 07:31N 01°15' E 103°54'0 0.0
2014-Oct-06 06:31N 01°15' E 103°54'0 0.0
2014-Oct-06 05:31N 01°15' E 103°54'0 0.0
2014-Oct-06 04:31N 01°15' E 103°54'0 0.0
2014-Oct-06 03:31N 01°15' E 103°54'0 0.0
2014-Oct-06 02:31N 01°15' E 103°54'0 0.0
2014-Oct-06 01:31N 01°15' E 103°54'0 0.1
2014-Oct-06 00:31N 01°15' E 103°54'0 0.1
2014-Oct-05 23:31N 01°15' E 103°54'0 0.1
2014-Oct-05 22:31N 01°15' E 103°54'0 0.1
2014-Oct-05 21:31N 01°15' E 103°54'0 0.0
2014-Oct-05 20:31N 01°15' E 103°54'0 0.1
2014-Oct-05 19:31N 01°15' E 103°54'0 0.0
2014-Oct-05 18:31N 01°15' E 103°54'0 0.0
2014-Oct-05 17:31N 01°15' E 103°54'0 0.0
2014-Oct-05 16:31N 01°15' E 103°54'0 0.0
2014-Oct-05 15:31N 01°15' E 103°54'0 0.0
2014-Oct-05 14:31N 01°15' E 103°54'0 0.0
2014-Oct-05 13:31N 01°15' E 103°54'0 0.1
2014-Oct-05 12:31N 01°15' E 103°54'0 0.1
2014-Oct-05 11:31N 01°15' E 103°54'  
Track history (hours):
 
Tides and Currents Weather Stations Pressure Air Temp Water Temp Dewpoint Dewpoint Depression Visibility Wind Speed Wind Dir Waves Ship Positions

Challenge Plus

Last reported at 2014-Oct-15 11:18 UTC. Time now 2014-Oct-31 07:51 UTC.
Position S 06°52' E 114°42'.
Warning: this ship's position is 15 days out of date.

Length 179 m; draft 11.8 m.

Type: Tanker. MMSI: 565267000.

Date/timePositionNaut miles runAvg speedWind from/ knotsBaromVisibWave heightAir tempDewpointWater temp
2014-Oct-15 11:18S 06°52' E 114°42'1012.8
2014-Oct-15 10:33S 06°45' E 114°35'1312.9
2014-Oct-15 09:33S 06°36' E 114°26'2913.2
2014-Oct-15 07:21S 06°15' E 114°07'  
2014-Oct-12 15:22N 01°16' E 104°12'1012.2
2014-Oct-12 14:33N 01°15' E 104°02'1212.1
2014-Oct-12 13:33N 01°11' E 103°51'1212.3
2014-Oct-12 12:33N 01°04' E 103°40'9 4.5
2014-Oct-12 10:30N 01°13' E 103°40'3 3.1
2014-Oct-12 09:31N 01°16' E 103°41'0 0.0
2014-Oct-12 08:31N 01°16' E 103°41'0 0.0
2014-Oct-11 19:33N 01°16' E 103°41'4 3.8
2014-Oct-11 18:33N 01°12' E 103°40'0 0.1
2014-Oct-11 17:20N 01°12' E 103°40'1 1.0
2014-Oct-11 16:33N 01°12' E 103°40'  
2014-Oct-08 01:18N 01°14' E 103°25'911.7
2014-Oct-08 00:34N 01°12' E 103°34'1212.2
2014-Oct-07 23:34N 01°09' E 103°45'1010.4
2014-Oct-07 22:33N 01°14' E 103°54'1 1.0
2014-Oct-07 21:31N 01°15' E 103°54'0 0.0
2014-Oct-07 20:31N 01°15' E 103°54'0 0.0
2014-Oct-07 19:31N 01°15' E 103°54'0 0.1
2014-Oct-07 18:31N 01°15' E 103°54'0 0.1
2014-Oct-07 17:31N 01°15' E 103°54'0 0.0
2014-Oct-07 16:31N 01°15' E 103°54'0 0.1
2014-Oct-07 15:28N 01°15' E 103°54'0 0.1
2014-Oct-07 14:31N 01°15' E 103°54'0 0.0
2014-Oct-07 13:31N 01°15' E 103°54'0 0.0
2014-Oct-07 12:31N 01°15' E 103°54'0 0.0
2014-Oct-07 11:28N 01°15' E 103°54'0 0.1
2014-Oct-07 10:31N 01°15' E 103°54'0 0.1
2014-Oct-07 09:31N 01°15' E 103°54'0 0.0
2014-Oct-07 08:31N 01°15' E 103°54'0 0.1
2014-Oct-07 07:31N 01°15' E 103°54'0 0.1
2014-Oct-07 06:31N 01°15' E 103°54'0 0.1
2014-Oct-07 05:31N 01°15' E 103°54'0 0.0
2014-Oct-07 04:31N 01°15' E 103°54'0 0.0
2014-Oct-07 03:31N 01°15' E 103°54'0 0.1
2014-Oct-07 02:31N 01°15' E 103°54'0 0.0
2014-Oct-07 01:31N 01°15' E 103°54'0 0.1
2014-Oct-07 00:31N 01°15' E 103°54'0 0.0
2014-Oct-06 23:31N 01°15' E 103°54'0 0.0
2014-Oct-06 22:31N 01°15' E 103°54'0 0.1
2014-Oct-06 21:31N 01°15' E 103°54'0 0.1
2014-Oct-06 20:31N 01°15' E 103°54'0 0.0
2014-Oct-06 19:31N 01°15' E 103°54'0 0.0
2014-Oct-06 18:31N 01°15' E 103°54'0 0.1
2014-Oct-06 17:31N 01°15' E 103°54'0 0.1
2014-Oct-06 16:31N 01°15' E 103°54'0 0.0
2014-Oct-06 15:31N 01°15' E 103°54'0 0.1
2014-Oct-06 14:31N 01°15' E 103°54'0 0.1
2014-Oct-06 13:31N 01°15' E 103°54'0 0.0
2014-Oct-06 12:31N 01°15' E 103°54'0 0.0
2014-Oct-06 11:31N 01°15' E 103°54'0 0.0
2014-Oct-06 10:31N 01°15' E 103°54'0 0.1
2014-Oct-06 09:31N 01°15' E 103°54'0 0.1
2014-Oct-06 08:31N 01°15' E 103°54'0 0.1
2014-Oct-06 07:31N 01°15' E 103°54'0 0.0
2014-Oct-06 06:31N 01°15' E 103°54'0 0.0
2014-Oct-06 05:31N 01°15' E 103°54'0 0.0
2014-Oct-06 04:31N 01°15' E 103°54'0 0.0
2014-Oct-06 03:31N 01°15' E 103°54'0 0.0
2014-Oct-06 02:31N 01°15' E 103°54'0 0.0
2014-Oct-06 01:31N 01°15' E 103°54'0 0.1
2014-Oct-06 00:31N 01°15' E 103°54'0 0.1
2014-Oct-05 23:31N 01°15' E 103°54'0 0.1
2014-Oct-05 22:31N 01°15' E 103°54'0 0.1
2014-Oct-05 21:31N 01°15' E 103°54'0 0.0
2014-Oct-05 20:31N 01°15' E 103°54'0 0.1
2014-Oct-05 19:31N 01°15' E 103°54'0 0.0
2014-Oct-05 18:31N 01°15' E 103°54'0 0.0
2014-Oct-05 17:31N 01°15' E 103°54'0 0.0
2014-Oct-05 16:31N 01°15' E 103°54'0 0.0
2014-Oct-05 15:31N 01°15' E 103°54'0 0.0
2014-Oct-05 14:31N 01°15' E 103°54'0 0.0
2014-Oct-05 13:31N 01°15' E 103°54'0 0.1
2014-Oct-05 12:31N 01°15' E 103°54'0 0.1
2014-Oct-05 11:31N 01°15' E 103°54'  

Dump ship's entire track history